createdAt,value
2022-11-05T00:01:10.233Z,12.96
2022-11-05T00:02:49.994Z,12.96
2022-11-05T00:06:09.542Z,12.98
2022-11-05T00:09:29.052Z,12.97
2022-11-05T00:11:08.823Z,12.95
2022-11-05T00:12:48.603Z,12.97
2022-11-05T00:14:28.365Z,12.96
2022-11-05T00:16:08.135Z,12.95
2022-11-05T00:17:47.907Z,12.97
2022-11-05T00:19:27.679Z,12.95
2022-11-05T00:21:07.436Z,12.94
2022-11-05T00:22:47.222Z,12.93
2022-11-05T00:24:26.961Z,12.93
2022-11-05T00:26:06.743Z,12.94
2022-11-05T00:27:46.530Z,12.95
2022-11-05T00:29:26.274Z,12.91
2022-11-05T00:31:06.051Z,12.91
2022-11-05T00:32:45.823Z,12.93
2022-11-05T00:34:25.577Z,12.92
2022-11-05T00:36:05.348Z,12.9
2022-11-05T00:37:45.119Z,12.91
2022-11-05T00:39:24.872Z,12.89
2022-11-05T00:41:04.645Z,12.9
2022-11-05T00:42:44.419Z,12.9
2022-11-05T00:44:24.225Z,12.9
2022-11-05T00:46:03.956Z,12.88
2022-11-05T00:47:43.719Z,12.87
2022-11-05T00:49:23.472Z,12.86
2022-11-05T00:51:03.241Z,12.87
2022-11-05T00:52:43.025Z,12.88
2022-11-05T00:54:22.785Z,12.88
2022-11-05T00:56:02.566Z,12.84
2022-11-05T00:57:42.312Z,12.84
2022-11-05T00:59:22.101Z,12.86
2022-11-05T01:01:01.865Z,12.83
2022-11-05T01:02:41.616Z,12.83
2022-11-05T01:04:21.420Z,12.85
2022-11-05T01:06:01.153Z,12.83
2022-11-05T01:07:40.939Z,12.83
2022-11-05T01:09:20.680Z,12.83
2022-11-05T01:11:00.472Z,12.84
2022-11-05T01:12:40.315Z,12.85
2022-11-05T01:14:19.995Z,12.84
2022-11-05T01:15:59.751Z,12.84
2022-11-05T01:17:39.527Z,12.81
2022-11-05T01:19:19.280Z,12.79
2022-11-05T01:20:59.060Z,12.8
2022-11-05T01:22:38.855Z,12.8
2022-11-05T01:24:18.587Z,12.79
2022-11-05T01:25:58.373Z,12.79
2022-11-05T01:27:38.132Z,12.8
2022-11-05T01:29:17.918Z,12.77
2022-11-05T01:30:57.668Z,12.77
2022-11-05T01:32:37.448Z,12.8
2022-11-05T01:34:17.193Z,12.78
2022-11-05T01:35:56.975Z,12.78
2022-11-05T01:37:36.746Z,12.78
2022-11-05T01:39:16.501Z,12.77
2022-11-05T01:40:56.286Z,12.78
2022-11-05T01:42:36.038Z,12.77
2022-11-05T01:44:15.802Z,12.77
2022-11-05T01:45:55.580Z,12.74
2022-11-05T01:49:15.091Z,12.75
2022-11-05T01:50:54.879Z,12.74
2022-11-05T01:52:34.646Z,12.75
2022-11-05T01:54:14.425Z,12.73
2022-11-05T01:55:54.173Z,12.72
2022-11-05T01:57:33.936Z,12.72
2022-11-05T01:59:13.700Z,12.74
2022-11-05T02:00:53.477Z,12.74
2022-11-05T02:02:33.233Z,12.72
2022-11-05T02:04:13.057Z,12.71
2022-11-05T02:05:52.769Z,12.73
2022-11-05T02:07:32.546Z,12.7
2022-11-05T02:09:12.314Z,12.72
2022-11-05T02:10:52.074Z,12.73
2022-11-05T02:12:31.838Z,12.7
2022-11-05T02:14:11.617Z,12.7
2022-11-05T02:15:51.373Z,12.71
2022-11-05T02:17:31.157Z,12.7
2022-11-05T02:19:10.925Z,12.7
2022-11-05T02:20:50.677Z,12.69
2022-11-05T02:22:30.443Z,12.68
2022-11-05T02:24:10.225Z,12.68
2022-11-05T02:25:49.992Z,12.66
2022-11-05T02:27:29.742Z,12.69
2022-11-05T02:29:09.520Z,12.66
2022-11-05T02:30:49.274Z,12.65
2022-11-05T02:32:29.058Z,12.65
2022-11-05T02:34:08.822Z,12.64
2022-11-05T02:35:48.604Z,12.64
2022-11-05T02:37:28.403Z,12.64
2022-11-05T02:39:08.119Z,12.64
2022-11-05T02:40:47.904Z,12.63
2022-11-05T02:42:27.655Z,12.64
2022-11-05T02:44:07.415Z,12.65
2022-11-05T02:45:47.207Z,12.62
2022-11-05T02:47:26.983Z,12.63
2022-11-05T02:49:06.714Z,12.61
2022-11-05T02:50:46.495Z,12.62
2022-11-05T02:52:26.263Z,12.63
2022-11-05T02:54:06.030Z,12.63
2022-11-05T02:57:25.616Z,12.6
2022-11-05T02:59:05.329Z,12.61
2022-11-05T03:00:45.136Z,12.61
2022-11-05T03:02:25.019Z,12.59
2022-11-05T03:04:04.791Z,12.61
2022-11-05T03:05:44.545Z,12.57
2022-11-05T03:07:24.355Z,12.6
2022-11-05T03:09:04.124Z,12.58
2022-11-05T03:10:43.850Z,12.56
2022-11-05T03:12:23.606Z,12.55
2022-11-05T03:14:03.375Z,12.57
2022-11-05T03:15:43.155Z,12.57
2022-11-05T03:17:22.928Z,12.56
2022-11-05T03:19:02.763Z,12.54
2022-11-05T03:20:42.466Z,12.54
2022-11-05T03:22:22.211Z,12.56
2022-11-05T03:24:01.982Z,12.56
2022-11-05T03:25:41.750Z,12.53
2022-11-05T03:27:21.523Z,12.55
2022-11-05T03:29:01.294Z,12.53
2022-11-05T03:30:41.057Z,12.52
2022-11-05T03:32:20.869Z,12.5
2022-11-05T03:34:00.597Z,12.53
2022-11-05T03:35:40.371Z,12.52
2022-11-05T03:37:20.122Z,12.5
2022-11-05T03:38:59.925Z,12.51
2022-11-05T03:40:39.652Z,12.49
2022-11-05T03:42:19.427Z,12.47
2022-11-05T03:43:59.186Z,12.48
2022-11-05T03:45:38.971Z,12.48
2022-11-05T03:47:18.729Z,12.48
2022-11-05T03:48:58.505Z,12.46
2022-11-05T03:50:38.256Z,12.47
2022-11-05T03:52:18.022Z,12.44
2022-11-05T03:53:57.816Z,12.44
2022-11-05T03:55:37.549Z,12.44
2022-11-05T03:57:17.343Z,12.44
2022-11-05T03:58:57.087Z,12.43
2022-11-05T04:02:16.622Z,12.43
2022-11-05T04:03:56.386Z,12.43
2022-11-05T04:05:36.131Z,12.42
2022-11-05T04:07:15.922Z,12.39
2022-11-05T04:08:55.677Z,12.4
2022-11-05T04:10:35.541Z,12.4
2022-11-05T04:12:15.206Z,12.37
2022-11-05T04:13:54.975Z,12.39
2022-11-05T04:15:34.721Z,12.39
2022-11-05T04:17:14.501Z,12.38
2022-11-05T04:18:54.258Z,12.37
2022-11-05T04:20:34.063Z,12.35
2022-11-05T04:22:13.794Z,12.33
2022-11-05T04:23:53.539Z,12.34
2022-11-05T04:25:33.314Z,12.34
2022-11-05T04:27:13.075Z,12.35
2022-11-05T04:28:52.844Z,12.32
2022-11-05T04:30:32.630Z,12.3
2022-11-05T04:32:12.367Z,12.32
2022-11-05T04:33:52.146Z,12.29
2022-11-05T04:35:31.902Z,12.3
2022-11-05T04:37:11.675Z,12.3
2022-11-05T04:38:51.421Z,12.3
2022-11-05T04:40:31.210Z,12.27
2022-11-05T04:42:10.960Z,12.29
2022-11-05T04:43:50.736Z,12.27
2022-11-05T04:45:30.515Z,12.27
2022-11-05T04:47:10.238Z,12.23
2022-11-05T04:48:50.040Z,12.24
2022-11-05T04:50:29.785Z,12.25
2022-11-05T04:52:09.548Z,12.24
2022-11-05T04:53:49.311Z,12.21
2022-11-05T04:55:29.069Z,12.19
2022-11-05T04:57:08.831Z,12.19
2022-11-05T04:58:48.601Z,12.21
2022-11-05T05:00:28.376Z,12.2
2022-11-05T05:02:08.136Z,12.19
2022-11-05T05:03:47.900Z,12.18
2022-11-05T05:05:27.651Z,12.17
2022-11-05T05:07:07.426Z,12.14
2022-11-05T05:08:47.189Z,12.13
2022-11-05T05:10:26.946Z,12.13
2022-11-05T05:12:06.724Z,12.13
2022-11-05T05:13:46.512Z,12.14
2022-11-05T05:15:26.243Z,12.14
2022-11-05T05:17:06.033Z,12.09
2022-11-05T05:18:45.772Z,12.11
2022-11-05T05:20:25.551Z,12.11
2022-11-05T05:22:05.310Z,12.08
2022-11-05T05:23:45.071Z,12.06
2022-11-05T05:25:24.833Z,12.08
2022-11-05T05:27:04.670Z,12.07
2022-11-05T05:28:44.351Z,12.04
2022-11-05T05:30:24.165Z,12.05
2022-11-05T05:32:03.884Z,12.04
2022-11-05T05:33:43.650Z,12.01
2022-11-05T05:35:23.422Z,12.03
2022-11-05T05:37:03.182Z,12.01
2022-11-05T05:38:42.951Z,11.99
2022-11-05T05:40:22.705Z,12
2022-11-05T05:42:02.562Z,12
2022-11-05T05:43:42.242Z,11.99
2022-11-05T05:45:22.008Z,11.97
2022-11-05T05:47:01.772Z,11.94
2022-11-05T05:48:41.540Z,11.94
2022-11-05T05:50:21.297Z,11.93
2022-11-05T05:52:01.093Z,11.94
2022-11-05T05:53:40.848Z,11.95
2022-11-05T05:55:20.583Z,11.93
2022-11-05T05:57:00.387Z,11.96
2022-11-05T05:58:40.149Z,11.99
2022-11-05T06:00:19.882Z,11.97
2022-11-05T06:01:59.661Z,12
2022-11-05T06:03:39.475Z,12
2022-11-05T06:05:19.227Z,12.04
2022-11-05T06:06:58.947Z,12.01
2022-11-05T06:08:38.698Z,12.06
2022-11-05T06:10:18.469Z,12.05
2022-11-05T06:11:58.283Z,12.06
2022-11-05T06:13:37.995Z,12.09
2022-11-05T06:15:17.767Z,12.11
2022-11-05T06:16:57.575Z,12.12
2022-11-05T06:18:37.303Z,12.1
2022-11-05T06:20:17.054Z,12.12
2022-11-05T06:21:56.852Z,12.14
2022-11-05T06:23:36.646Z,12.13
2022-11-05T06:25:16.337Z,12.13
2022-11-05T06:26:56.131Z,12.14
2022-11-05T06:28:35.871Z,12.19
2022-11-05T06:30:15.668Z,12.17
2022-11-05T06:31:55.413Z,12.16
2022-11-05T06:33:35.231Z,12.18
2022-11-05T06:35:14.997Z,12.17
2022-11-05T06:36:54.782Z,12.17
2022-11-05T06:38:34.470Z,12.17
2022-11-05T06:40:14.274Z,12.18
2022-11-05T06:43:33.746Z,12.18
2022-11-05T06:45:13.563Z,12.19
2022-11-05T06:48:33.102Z,12.21
2022-11-05T06:50:12.808Z,12.18
2022-11-05T06:53:32.376Z,12.19
2022-11-05T06:55:12.136Z,12.19
2022-11-05T06:58:31.660Z,12.18
2022-11-05T07:00:11.482Z,12.19
2022-11-05T07:01:51.177Z,12.19
2022-11-05T07:03:30.951Z,12.18
2022-11-05T07:05:10.726Z,12.18
2022-11-05T07:06:50.503Z,12.18
2022-11-05T07:08:30.260Z,12.22
2022-11-05T07:10:10.034Z,12.21
2022-11-05T07:11:49.804Z,12.18
2022-11-05T07:13:29.595Z,12.21
2022-11-05T07:15:09.376Z,12.18
2022-11-05T07:16:49.119Z,12.17
2022-11-05T07:18:28.885Z,12.2
2022-11-05T07:20:08.642Z,12.19
2022-11-05T07:21:48.425Z,12.18
2022-11-05T07:25:07.955Z,12.2
2022-11-05T07:26:47.728Z,12.19
2022-11-05T07:28:27.523Z,12.18
2022-11-05T07:30:07.276Z,12.19
2022-11-05T07:31:47.050Z,12.21
2022-11-05T07:33:26.830Z,12.16
2022-11-05T07:35:06.615Z,12.19
2022-11-05T07:36:46.370Z,12.17
2022-11-05T07:38:26.124Z,12.17
2022-11-05T07:40:05.916Z,12.17
2022-11-05T07:41:45.681Z,12.19
2022-11-05T07:43:25.487Z,12.2
2022-11-05T07:45:05.265Z,12.19
2022-11-05T07:46:44.957Z,12.19
2022-11-05T07:48:24.807Z,12.17
2022-11-05T07:50:04.530Z,12.2
2022-11-05T07:51:44.276Z,12.19
2022-11-05T07:53:24.094Z,12.21
2022-11-05T07:55:03.815Z,12.22
2022-11-05T07:56:43.594Z,12.27
2022-11-05T07:58:23.352Z,12.31
2022-11-05T08:00:03.194Z,12.38
2022-11-05T08:01:42.926Z,12.45
2022-11-05T08:03:22.655Z,12.49
2022-11-05T08:05:02.456Z,12.55
2022-11-05T08:06:42.221Z,12.61
2022-11-05T08:08:21.984Z,12.64
2022-11-05T08:10:01.768Z,12.72
2022-11-05T08:11:41.499Z,12.8
2022-11-05T08:13:21.293Z,12.81
2022-11-05T08:15:01.102Z,12.87
2022-11-05T08:16:40.858Z,12.92
2022-11-05T08:18:20.601Z,13
2022-11-05T08:20:00.377Z,13.02
2022-11-05T08:21:40.124Z,13.1
2022-11-05T08:23:19.901Z,13.13
2022-11-05T08:24:59.663Z,13.23
2022-11-05T08:26:39.447Z,13.25
2022-11-05T08:28:19.200Z,13.29
2022-11-05T08:29:59.000Z,13.32
2022-11-05T08:31:38.750Z,13.38
2022-11-05T08:33:18.579Z,13.41
2022-11-05T08:34:58.292Z,13.43
2022-11-05T08:36:38.068Z,13.47
2022-11-05T08:38:17.901Z,13.47
2022-11-05T08:39:57.615Z,13.51
2022-11-05T08:41:37.382Z,13.54
2022-11-05T08:43:17.137Z,13.56
2022-11-05T08:44:56.908Z,13.56
2022-11-05T08:46:36.727Z,13.58
2022-11-05T08:48:16.452Z,13.61
2022-11-05T08:49:56.221Z,13.62
2022-11-05T08:51:36.072Z,13.64
2022-11-05T08:53:15.767Z,13.66
2022-11-05T08:54:55.532Z,13.71
2022-11-05T08:56:35.307Z,13.68
2022-11-05T08:58:15.080Z,13.68
2022-11-05T08:59:54.839Z,13.69
2022-11-05T09:01:34.602Z,13.72
2022-11-05T09:03:14.389Z,13.71
2022-11-05T09:04:54.143Z,13.74
2022-11-05T09:06:33.943Z,13.76
2022-11-05T09:08:13.692Z,13.75
2022-11-05T09:09:53.472Z,13.75
2022-11-05T09:11:33.239Z,13.74
2022-11-05T09:13:13.024Z,13.75
2022-11-05T09:14:52.749Z,13.77
2022-11-05T09:16:32.586Z,13.78
2022-11-05T09:18:12.287Z,13.8
2022-11-05T09:19:52.066Z,13.8
2022-11-05T09:21:31.901Z,13.79
2022-11-05T09:23:11.604Z,13.79
2022-11-05T09:24:51.394Z,13.79
2022-11-05T09:26:31.162Z,13.81
2022-11-05T09:28:10.924Z,13.81
2022-11-05T09:29:50.719Z,13.84
2022-11-05T09:33:10.222Z,13.8
2022-11-05T09:34:50.058Z,13.82
2022-11-05T09:36:29.790Z,13.82
2022-11-05T09:38:09.537Z,13.83
2022-11-05T09:39:49.291Z,13.85
2022-11-05T09:41:29.085Z,13.85
2022-11-05T09:44:48.609Z,13.84
2022-11-05T09:46:28.378Z,13.86
2022-11-05T09:48:08.174Z,13.88
2022-11-05T09:49:47.919Z,13.86
2022-11-05T09:51:27.777Z,13.88
2022-11-05T09:53:07.472Z,13.91
2022-11-05T09:54:47.232Z,13.93
2022-11-05T09:56:27.073Z,13.96
2022-11-05T09:58:06.767Z,13.94
2022-11-05T09:59:46.595Z,13.96
2022-11-05T10:01:26.314Z,14.01
2022-11-05T10:03:06.076Z,14.01
2022-11-05T10:04:45.944Z,14.03
2022-11-05T10:06:25.644Z,14.01
2022-11-05T10:08:05.396Z,14.04
2022-11-05T10:09:45.152Z,14.06
2022-11-05T10:11:24.957Z,14.09
2022-11-05T10:13:04.725Z,14.12
2022-11-05T10:14:44.491Z,14.13
2022-11-05T10:16:24.285Z,14.15
2022-11-05T10:18:04.052Z,14.13
2022-11-05T10:19:43.783Z,14.19
2022-11-05T10:21:23.555Z,14.2
2022-11-05T10:23:03.333Z,14.21
2022-11-05T10:24:43.099Z,14.24
2022-11-05T10:26:22.861Z,14.28
2022-11-05T10:28:02.735Z,14.28
2022-11-05T10:29:42.404Z,14.29
2022-11-05T10:31:22.175Z,14.33
2022-11-05T10:33:01.967Z,14.33
2022-11-05T10:34:41.781Z,14.36
2022-11-05T10:36:21.484Z,14.4
2022-11-05T10:38:01.264Z,14.42
2022-11-05T10:39:41.094Z,14.45
2022-11-05T10:41:20.796Z,14.45
2022-11-05T10:43:00.580Z,14.45
2022-11-05T10:44:40.365Z,14.51
2022-11-05T10:46:20.100Z,14.52
2022-11-05T10:47:59.956Z,14.54
2022-11-05T10:49:39.707Z,14.59
2022-11-05T10:51:19.514Z,14.59
2022-11-05T10:52:59.201Z,14.64
2022-11-05T10:54:38.992Z,14.63
2022-11-05T10:56:18.735Z,14.68
2022-11-05T10:57:58.527Z,14.69
2022-11-05T10:59:38.280Z,14.73
2022-11-05T11:01:18.143Z,14.77
2022-11-05T11:04:37.580Z,14.82
2022-11-05T11:06:17.380Z,14.84
2022-11-05T11:07:57.120Z,14.88
2022-11-05T11:09:36.931Z,14.91
2022-11-05T11:11:16.695Z,14.93
2022-11-05T11:12:56.467Z,14.96
2022-11-05T11:14:36.215Z,14.98
2022-11-05T11:16:15.974Z,14.99
2022-11-05T11:17:55.742Z,14.97
2022-11-05T11:19:35.532Z,15
2022-11-05T11:21:15.263Z,14.98
2022-11-05T11:22:55.022Z,14.96
2022-11-05T11:24:34.795Z,15
2022-11-05T11:26:14.562Z,15.03
2022-11-05T11:27:54.352Z,15.07
2022-11-05T11:29:34.154Z,15.12
2022-11-05T11:31:13.865Z,15.19
2022-11-05T11:32:53.649Z,15.22
2022-11-05T11:34:33.491Z,15.25
2022-11-05T11:36:13.169Z,15.29
2022-11-05T11:37:52.934Z,15.32
2022-11-05T11:39:32.698Z,15.38
2022-11-05T11:41:12.475Z,15.42
2022-11-05T11:42:52.237Z,15.46
2022-11-05T11:44:31.999Z,15.49
2022-11-05T11:46:11.814Z,15.52
2022-11-05T11:47:51.539Z,15.59
2022-11-05T11:49:31.306Z,15.63
2022-11-05T11:51:11.064Z,15.69
2022-11-05T11:52:50.867Z,15.72
2022-11-05T11:54:30.601Z,15.77
2022-11-05T11:56:10.417Z,15.83
2022-11-05T11:57:50.158Z,15.89
2022-11-05T11:59:29.926Z,15.94
2022-11-05T12:01:09.692Z,15.98
2022-11-05T12:02:49.526Z,16
2022-11-05T12:04:29.230Z,16.09
2022-11-05T12:06:08.991Z,16.11
2022-11-05T12:07:48.772Z,16.14
2022-11-05T12:09:28.543Z,16.21
2022-11-05T12:11:08.375Z,16.23
2022-11-05T12:12:48.076Z,16.28
2022-11-05T12:14:27.857Z,16.31
2022-11-05T12:16:07.621Z,16.37
2022-11-05T12:17:47.428Z,16.36
2022-11-05T12:21:06.955Z,16.44
2022-11-05T12:22:46.712Z,16.45
2022-11-05T12:24:26.466Z,16.44
2022-11-05T12:26:06.246Z,16.48
2022-11-05T12:27:46.004Z,16.5
2022-11-05T12:29:25.785Z,16.54
2022-11-05T12:31:05.568Z,16.6
2022-11-05T12:32:45.325Z,16.62
2022-11-05T12:34:25.094Z,16.64
2022-11-05T12:36:04.874Z,16.66
2022-11-05T12:37:44.660Z,16.65
2022-11-05T12:39:24.440Z,16.7
2022-11-05T12:41:04.240Z,16.7
2022-11-05T12:42:43.944Z,16.75
2022-11-05T12:44:23.708Z,16.76
2022-11-05T12:46:03.498Z,16.79
2022-11-05T12:47:43.262Z,16.79
2022-11-05T12:49:23.027Z,16.83
2022-11-05T12:51:02.790Z,16.81
2022-11-05T12:52:42.568Z,16.85
2022-11-05T12:54:22.356Z,16.85
2022-11-05T12:56:02.141Z,16.89
2022-11-05T12:57:41.878Z,16.93
2022-11-05T12:59:21.637Z,16.91
2022-11-05T13:01:01.423Z,16.95
2022-11-05T13:02:41.191Z,16.95
2022-11-05T13:04:20.958Z,16.99
2022-11-05T13:06:00.730Z,16.98
2022-11-05T13:07:40.498Z,17.01
2022-11-05T13:09:20.276Z,17.04
2022-11-05T13:11:00.079Z,17.01
2022-11-05T13:12:39.810Z,17.04
2022-11-05T13:14:19.603Z,17.03
2022-11-05T13:15:59.375Z,17.04
2022-11-05T13:17:39.129Z,17.04
2022-11-05T13:19:18.892Z,17.07
2022-11-05T13:20:58.710Z,17.06
2022-11-05T13:22:38.439Z,17.04
2022-11-05T13:24:18.280Z,17.04
2022-11-05T13:25:58.014Z,17.04
2022-11-05T13:27:37.744Z,17.07
2022-11-05T13:29:17.548Z,17.06
2022-11-05T13:30:57.361Z,17.06
2022-11-05T13:32:37.065Z,17.06
2022-11-05T13:34:16.886Z,17.06
2022-11-05T13:35:56.586Z,17.09
2022-11-05T13:37:36.412Z,17.1
2022-11-05T13:39:16.187Z,17.08
2022-11-05T13:40:55.908Z,17.09
2022-11-05T13:42:35.701Z,17.07
2022-11-05T13:44:15.456Z,17.12
2022-11-05T13:45:55.255Z,17.11
2022-11-05T13:47:34.986Z,17.09
2022-11-05T13:49:14.764Z,17.11
2022-11-05T13:50:54.521Z,17.11
2022-11-05T13:52:34.351Z,17.12
2022-11-05T13:54:14.115Z,17.12
2022-11-05T13:55:53.836Z,17.12
2022-11-05T13:57:33.610Z,17.14
2022-11-05T13:59:13.413Z,17.14
2022-11-05T14:00:53.161Z,17.14
2022-11-05T14:02:32.963Z,17.14
2022-11-05T14:04:12.699Z,17.17
2022-11-05T14:05:52.509Z,17.12
2022-11-05T14:07:32.288Z,17.14
2022-11-05T14:09:12.050Z,17.12
2022-11-05T14:10:51.836Z,17.14
2022-11-05T14:12:31.543Z,17.14
2022-11-05T14:14:11.346Z,17.12
2022-11-05T14:15:51.083Z,17.16
2022-11-05T14:17:30.901Z,17.14
2022-11-05T14:19:10.622Z,17.12
2022-11-05T14:20:50.463Z,17.12
2022-11-05T14:22:30.169Z,17.12
2022-11-05T14:24:09.932Z,17.12
2022-11-05T14:25:49.707Z,17.12
2022-11-05T14:27:29.492Z,17.12
2022-11-05T14:29:09.254Z,17.12
2022-11-05T14:30:49.039Z,17.12
2022-11-05T14:32:28.829Z,17.12
2022-11-05T14:34:08.550Z,17.11
2022-11-05T14:35:48.335Z,17.09
2022-11-05T14:37:28.113Z,17.11
2022-11-05T14:39:07.882Z,17.1
2022-11-05T14:40:47.681Z,17.1
2022-11-05T14:42:27.430Z,17.09
2022-11-05T14:44:07.182Z,17.07
2022-11-05T14:45:46.961Z,17.07
2022-11-05T14:47:26.730Z,17.07
2022-11-05T14:49:06.491Z,17.04
2022-11-05T14:50:46.269Z,17.04
2022-11-05T14:54:05.814Z,17.03
2022-11-05T14:55:45.613Z,16.99
2022-11-05T14:57:25.343Z,17
2022-11-05T14:59:05.132Z,16.98
2022-11-05T15:00:44.912Z,16.98
2022-11-05T15:02:24.654Z,16.96
2022-11-05T15:04:04.485Z,16.96
2022-11-05T15:05:44.208Z,16.94
2022-11-05T15:07:23.962Z,16.95
2022-11-05T15:09:03.769Z,16.92
2022-11-05T15:10:43.516Z,16.93
2022-11-05T15:12:23.288Z,16.89
2022-11-05T15:14:03.093Z,16.87
2022-11-05T15:15:42.819Z,16.85
2022-11-05T15:17:22.587Z,16.81
2022-11-05T15:19:02.375Z,16.79
2022-11-05T15:20:42.156Z,16.74
2022-11-05T15:22:21.908Z,16.7
2022-11-05T15:24:01.672Z,16.68
2022-11-05T15:25:41.449Z,16.66
2022-11-05T15:27:21.251Z,16.65
2022-11-05T15:29:00.949Z,16.6
2022-11-05T15:30:40.725Z,16.57
2022-11-05T15:32:20.526Z,16.54
2022-11-05T15:35:40.051Z,16.51
2022-11-05T15:37:19.817Z,16.45
2022-11-05T15:38:59.563Z,16.45
2022-11-05T15:40:39.337Z,16.44
2022-11-05T15:42:19.156Z,16.39
2022-11-05T15:43:58.892Z,16.36
2022-11-05T15:45:38.647Z,16.36
2022-11-05T15:47:18.413Z,16.32
2022-11-05T15:50:37.955Z,16.26
2022-11-05T15:52:17.718Z,16.24
2022-11-05T15:53:57.485Z,16.2
2022-11-05T15:55:37.295Z,16.17
2022-11-05T15:57:17.020Z,16.15
2022-11-05T15:58:56.782Z,16.08
2022-11-05T16:02:16.308Z,15.97
2022-11-05T16:03:56.089Z,15.94
2022-11-05T16:05:35.852Z,15.88
2022-11-05T16:07:15.620Z,15.85
2022-11-05T16:08:55.404Z,15.8
2022-11-05T16:10:35.168Z,15.75
2022-11-05T16:12:14.955Z,15.72
2022-11-05T16:13:54.679Z,15.65
2022-11-05T16:15:34.458Z,15.62
2022-11-05T16:17:14.216Z,15.57
2022-11-05T16:18:54.001Z,15.53
2022-11-05T16:20:33.799Z,15.48
2022-11-05T16:22:13.527Z,15.45
2022-11-05T16:23:53.309Z,15.4
2022-11-05T16:25:33.080Z,15.38
2022-11-05T16:27:12.832Z,15.33
2022-11-05T16:30:32.374Z,15.26
2022-11-05T16:32:12.133Z,15.22
2022-11-05T16:33:51.907Z,15.18
2022-11-05T16:35:31.679Z,15.15
2022-11-05T16:37:11.452Z,15.1
2022-11-05T16:38:51.195Z,15.08
2022-11-05T16:40:31.015Z,15.04
2022-11-05T16:42:10.768Z,15
2022-11-05T16:43:50.537Z,14.97
2022-11-05T16:45:30.273Z,14.91
2022-11-05T16:47:10.061Z,14.88
2022-11-05T16:48:49.806Z,14.85
2022-11-05T16:50:29.623Z,14.82
2022-11-05T16:52:09.341Z,14.77
2022-11-05T16:53:49.142Z,14.75
2022-11-05T16:55:28.899Z,14.71
2022-11-05T16:57:08.663Z,14.66
2022-11-05T16:58:48.414Z,14.65
2022-11-05T17:00:28.224Z,14.61
2022-11-05T17:02:07.940Z,14.58
2022-11-05T17:03:47.703Z,14.54
2022-11-05T17:05:27.530Z,14.5
2022-11-05T17:07:07.245Z,14.47
2022-11-05T17:08:47.027Z,14.44
2022-11-05T17:10:26.794Z,14.4
2022-11-05T17:12:06.593Z,14.38
2022-11-05T17:13:46.313Z,14.34
2022-11-05T17:15:26.095Z,14.32
2022-11-05T17:17:05.848Z,14.26
2022-11-05T17:18:45.606Z,14.26
2022-11-05T17:20:25.382Z,14.22
2022-11-05T17:22:05.190Z,14.17
2022-11-05T17:23:44.957Z,14.17
2022-11-05T17:25:24.713Z,14.12
2022-11-05T17:27:04.456Z,14.08
2022-11-05T17:28:44.213Z,14.06
2022-11-05T17:30:23.989Z,14.04
2022-11-05T17:32:03.779Z,14.01
2022-11-05T17:33:43.518Z,13.97
2022-11-05T17:35:23.310Z,13.93
2022-11-05T17:37:03.063Z,13.9
2022-11-05T17:38:42.838Z,13.87
2022-11-05T17:40:22.599Z,13.87
2022-11-05T17:42:02.393Z,13.81
2022-11-05T17:43:42.132Z,13.81
2022-11-05T17:45:21.913Z,13.76
2022-11-05T17:47:01.662Z,13.74
2022-11-05T17:48:41.452Z,13.72
2022-11-05T17:50:21.200Z,13.69
2022-11-05T17:52:00.997Z,13.67
2022-11-05T17:53:40.735Z,13.61
2022-11-05T17:55:20.495Z,13.59
2022-11-05T17:57:00.262Z,13.58
2022-11-05T17:58:40.025Z,13.53
2022-11-05T18:00:19.806Z,13.51
2022-11-05T18:01:59.662Z,13.5
2022-11-05T18:03:39.358Z,13.47
2022-11-05T18:05:19.160Z,13.43
2022-11-05T18:06:58.939Z,13.42
2022-11-05T18:08:38.723Z,13.4
2022-11-05T18:10:18.408Z,13.35
2022-11-05T18:11:58.209Z,13.35
2022-11-05T18:13:37.945Z,13.31
2022-11-05T18:15:17.792Z,13.3
2022-11-05T18:16:57.466Z,13.25
2022-11-05T18:18:37.304Z,13.22
2022-11-05T18:20:17.010Z,13.22
2022-11-05T18:21:56.775Z,13.2
2022-11-05T18:23:36.526Z,13.16
2022-11-05T18:25:16.308Z,13.15
2022-11-05T18:26:56.185Z,13.11
2022-11-05T18:28:35.849Z,13.08
2022-11-05T18:30:15.662Z,13.04
2022-11-05T18:31:55.367Z,13.04
2022-11-05T18:33:35.171Z,13.02
2022-11-05T18:35:14.945Z,12.97
2022-11-05T18:36:54.727Z,12.95
2022-11-05T18:38:34.532Z,12.92
2022-11-05T18:40:14.231Z,12.91
2022-11-05T18:41:53.970Z,12.88
2022-11-05T18:43:33.764Z,12.87
2022-11-05T18:45:13.536Z,12.83
2022-11-05T18:46:53.290Z,12.81
2022-11-05T18:48:33.056Z,12.77
2022-11-05T18:50:12.852Z,12.77
2022-11-05T18:51:52.591Z,12.73
2022-11-05T18:53:32.390Z,12.72
2022-11-05T18:56:51.880Z,12.67
2022-11-05T18:58:31.654Z,12.63
2022-11-05T19:00:11.455Z,12.63
2022-11-05T19:03:31.020Z,12.55
2022-11-05T19:05:10.728Z,12.55
2022-11-05T19:06:50.488Z,12.53
2022-11-05T19:08:30.338Z,12.47
2022-11-05T19:10:10.119Z,12.48
2022-11-05T19:11:49.847Z,12.44
2022-11-05T19:13:29.627Z,12.42
2022-11-05T19:15:09.381Z,12.36
2022-11-05T19:16:49.102Z,12.35
2022-11-05T19:20:08.625Z,12.33
2022-11-05T19:21:48.391Z,12.27
2022-11-05T19:23:28.222Z,12.27
2022-11-05T19:25:07.961Z,12.24
2022-11-05T19:26:47.818Z,12.21
2022-11-05T19:28:27.549Z,12.21
2022-11-05T19:30:07.343Z,12.18
2022-11-05T19:31:47.010Z,12.16
2022-11-05T19:33:26.901Z,12.11
2022-11-05T19:35:06.592Z,12.11
2022-11-05T19:36:46.423Z,12.08
2022-11-05T19:38:26.075Z,12.07
2022-11-05T19:40:05.943Z,12.02
2022-11-05T19:41:45.642Z,12
2022-11-05T19:43:25.478Z,11.98
2022-11-05T19:45:05.252Z,11.98
2022-11-05T19:46:44.925Z,11.94
2022-11-05T19:48:24.679Z,11.93
2022-11-05T19:50:04.554Z,11.9
2022-11-05T19:51:44.287Z,11.87
2022-11-05T19:53:23.986Z,11.86
2022-11-05T19:55:03.751Z,11.84
2022-11-05T19:56:43.554Z,11.8
2022-11-05T19:58:23.321Z,11.81
2022-11-05T20:00:03.060Z,11.8
2022-11-05T20:01:42.837Z,11.75
2022-11-05T20:03:22.589Z,11.75
2022-11-05T20:05:02.376Z,11.72
2022-11-05T20:06:42.191Z,11.71
2022-11-05T20:08:21.879Z,11.66
2022-11-05T20:10:01.663Z,11.66
2022-11-05T20:11:41.420Z,11.65
2022-11-05T20:13:21.278Z,11.63
2022-11-05T20:15:00.949Z,11.59
2022-11-05T20:16:40.778Z,11.59
2022-11-05T20:18:20.541Z,11.55
2022-11-05T20:20:00.297Z,11.52
2022-11-05T20:21:40.043Z,11.52
2022-11-05T20:23:19.787Z,11.47
2022-11-05T20:24:59.588Z,11.49
2022-11-05T20:26:39.326Z,11.44
2022-11-05T20:28:19.094Z,11.43
2022-11-05T20:29:58.891Z,11.43
2022-11-05T20:31:38.716Z,11.38
2022-11-05T20:33:18.437Z,11.37
2022-11-05T20:34:58.149Z,11.37
2022-11-05T20:36:37.959Z,11.34
2022-11-05T20:38:17.742Z,11.31
2022-11-05T20:39:57.454Z,11.31
2022-11-05T20:43:17.048Z,11.27
2022-11-05T20:44:56.819Z,11.24
2022-11-05T20:46:36.531Z,11.23
2022-11-05T20:48:16.309Z,11.19
2022-11-05T20:49:56.065Z,11.2
2022-11-05T20:51:35.893Z,11.17
2022-11-05T20:53:15.601Z,11.13
2022-11-05T20:54:55.364Z,11.13
2022-11-05T20:56:35.236Z,11.1
2022-11-05T20:58:14.900Z,11.09
2022-11-05T20:59:54.674Z,11.06
2022-11-05T21:01:34.453Z,11.05
2022-11-05T21:03:14.193Z,11.03
2022-11-05T21:04:54.017Z,10.99
2022-11-05T21:06:33.737Z,11
2022-11-05T21:08:13.547Z,10.96
2022-11-05T21:09:53.315Z,10.97
2022-11-05T21:11:33.042Z,10.92
2022-11-05T21:13:12.802Z,10.91
2022-11-05T21:14:52.572Z,10.9
2022-11-05T21:16:32.366Z,10.89
2022-11-05T21:18:12.109Z,10.84
2022-11-05T21:19:51.973Z,10.83
2022-11-05T21:21:31.655Z,10.83
2022-11-05T21:23:11.409Z,10.79
2022-11-05T21:24:51.189Z,10.77
2022-11-05T21:26:30.944Z,10.77
2022-11-05T21:28:10.705Z,10.75
2022-11-05T21:29:50.517Z,10.74
2022-11-05T21:31:30.324Z,10.73
2022-11-05T21:33:10.067Z,10.68
2022-11-05T21:34:49.811Z,10.67
2022-11-05T21:36:29.611Z,10.67
2022-11-05T21:38:09.369Z,10.65
2022-11-05T21:39:49.115Z,10.62
2022-11-05T21:41:28.902Z,10.61
2022-11-05T21:43:08.635Z,10.6
2022-11-05T21:46:28.199Z,10.54
2022-11-05T21:48:07.930Z,10.54
2022-11-05T21:49:47.701Z,10.52
2022-11-05T21:51:27.464Z,10.5
2022-11-05T21:53:07.242Z,10.48
2022-11-05T21:54:46.982Z,10.44
2022-11-05T21:56:26.762Z,10.43
2022-11-05T21:58:06.563Z,10.41
2022-11-05T21:59:46.393Z,10.42
2022-11-05T22:01:26.073Z,10.39
2022-11-05T22:03:05.817Z,10.36
2022-11-05T22:04:45.601Z,10.35
2022-11-05T22:06:25.391Z,10.33
2022-11-05T22:08:05.201Z,10.31
2022-11-05T22:09:44.890Z,10.29